Topeka, KS

3:12 PM CDT on August 04, 2015 (GMT -0500)
Billard Municipal | | Change Station
CLOSE
Current Station
Airport
Location: Topeka,
Elevation: 886 ft
Nearby Weather Stations

Elev 886 ft 39.07 °N, 95.63 °W | Updated 19 minutes ago

Scattered Clouds
Scattered Clouds
86 °F
Feels Like 92 °F
N
14
Wind Variable Wind from East

Today
High -- | Low -- °F
--% Chance of Precip.
Yesterday
High -- | Low -- °F
Precip. -- in
6:25 AM 8:31 PM
Waning Gibbous, 75% visible
Pressure 29.90 in
Visibility 10.0 miles
Clouds Few 4500 ft
Scattered Clouds 8000 ft
Heat Index 92 °F
Dew Point 72 °F
Humidity 63%
Rainfall 0.00 in
Snow Depth Not available.
UV 8 out of 12
Pollen 7.00 out of 12
Air Quality Not available.
Flu Activity Not available.
METAR KTOP 041953Z 10012KT 10SM FEW045 SCT080 30/22 A2993 RMK AO2 SLP125 T03000222

More Conditions Fewer Conditions

Pressure 29.90 in
Visibility 10.0 miles
Clouds Few 4500 ft
Scattered Clouds 8000 ft
Heat Index 92 °F
Dew Point 72 °F
Humidity 63%
Rainfall 0.00 in
Snow Depth Not available.
UV 8 out of 12
Pollen 7.00 out of 12
Air Quality Not available.
Flu Activity Not available.
METAR KTOP 041953Z 10012KT 10SM FEW045 SCT080 30/22 A2993 RMK AO2 SLP125 T03000222

More Conditions Fewer Conditions

10-Day Weather Forecast

×

Almanac

Astronomy

Aug. 04, 2015 Rise Set
Actual Time
Civil Twilight
Nautical Twilight
Astronomical Twilight
Moon
Length of Visible Light
Length of Day
Tomorrow will be .
, % of the Moon is Illuminated

Today's Extremes

State Highs State Lows

Community

WunderPhotos

Upload Photos

1,843,962 photos uploaded!

WunderBlogs® & News

Nearby

Air Quality

  Air Quality AQ Index Pollutant
Not available.

Snow Depth

Station Depth Elevation

Earthquake Activity

City Distance Mag. Time & Date
Minimum magnitude displayed is 2.5.

Coastal Water Temperatures

Place Temperature

Stations

Nearby Weather Stations

Station Location Temp. Windchill Dew Point Humidity Wind Precip. Elev Updated Type